Time;durP1;ratioP1;P1;durP2;ratioP2;P2;SDS_P1;SDS_P2;PMS_P1;PMS_P2;Temp;Humidity;BMP_temperature;BMP_pressure;BME280_temperature;BME280_humidity;BME280_pressure;Samples;Min_cycle;Max_cycle;Signal;HPM_P1;HPM_P2
2022/03/04 00:04:55;;;;;;;48.50;30.30;;;;;;;2.81;52.54;99128.65;233614;1217;138453;-64
2022/03/04 00:09:58;;;;;;;48.90;30.50;;;;;;;2.79;52.43;99126.24;233517;1217;138522;-60
2022/03/04 00:15:02;;;;;;;45.20;28.00;;;;;;;2.80;52.47;99127.77;233348;1217;138467;-60
2022/03/04 00:20:05;;;;;;;48.30;29.30;;;;;;;2.81;52.47;99126.16;233483;1217;139643;-63
2022/03/04 00:25:09;;;;;;;40.80;26.00;;;;;;;2.82;52.28;99122.11;233466;1217;138648;-65
2022/03/04 00:30:12;;;;;;;44.40;26.40;;;;;;;2.83;52.18;99120.00;233363;1217;138555;-61
2022/03/04 00:35:16;;;;;;;40.10;25.40;;;;;;;2.85;52.25;99121.35;233388;1217;138186;-59
2022/03/04 00:40:19;;;;;;;41.00;24.10;;;;;;;2.84;52.21;99119.44;233414;1217;138386;-63
2022/03/04 00:45:22;;;;;;;38.80;24.80;;;;;;;2.83;52.37;99116.14;233489;1217;139529;-61
2022/03/04 00:50:25;;;;;;;36.00;22.30;;;;;;;2.83;52.36;99114.55;233447;1217;138541;-66
2022/03/04 00:55:28;;;;;;;35.40;22.60;;;;;;;2.83;52.41;99108.94;233569;1217;138219;-63
2022/03/04 01:00:31;;;;;;;32.40;20.90;;;;;;;2.82;52.46;99107.59;233535;1217;139162;-61
2022/03/04 01:05:34;;;;;;;31.80;19.90;;;;;;;2.81;52.24;99107.09;233450;1217;139013;-63
2022/03/04 01:10:37;;;;;;;31.90;19.80;;;;;;;2.78;52.25;99103.14;233531;1217;138170;-64
2022/03/04 01:15:40;;;;;;;30.40;19.80;;;;;;;2.77;52.26;99098.28;233530;1215;138292;-64
2022/03/04 01:20:44;;;;;;;30.00;18.80;;;;;;;2.77;52.06;99095.30;233564;1216;138199;-61
2022/03/04 01:25:47;;;;;;;31.30;19.40;;;;;;;2.77;52.11;99090.89;233442;1217;139018;-64
2022/03/04 01:30:50;;;;;;;31.70;19.60;;;;;;;2.78;52.05;99091.77;233460;1217;138695;-63
2022/03/04 01:35:54;;;;;;;25.60;16.60;;;;;;;2.74;52.20;99091.16;233564;1215;138390;-63
2022/03/04 01:40:57;;;;;;;27.60;16.40;;;;;;;2.76;52.32;99094.98;233594;1217;138957;-64
2022/03/04 01:46:12;;;;;;;25.20;14.60;;;;;;;2.76;52.48;99096.55;233357;1217;138283;-60
2022/03/04 01:51:15;;;;;;;23.20;14.60;;;;;;;2.78;52.66;99096.66;233434;1217;139354;-63
2022/03/04 01:56:18;;;;;;;22.70;14.90;;;;;;;2.77;52.48;99091.10;233586;1217;138958;-62
2022/03/04 02:01:22;;;;;;;21.90;13.60;;;;;;;2.78;52.38;99089.66;233569;1217;138884;-62
2022/03/04 02:06:25;;;;;;;24.30;14.60;;;;;;;2.78;52.22;99085.80;233442;1217;138379;-63
2022/03/04 02:11:28;;;;;;;24.70;13.80;;;;;;;2.79;52.05;99084.55;233328;1217;138933;-63
2022/03/04 02:16:40;;;;;;;22.10;13.50;;;;;;;2.79;51.91;99082.27;233599;1217;139166;-61
2022/03/04 02:21:52;;;;;;;23.30;13.70;;;;;;;2.80;51.89;99081.90;233386;1217;138364;-61
2022/03/04 02:26:57;;;;;;;21.00;13.30;;;;;;;2.81;51.76;99089.74;233436;1217;138670;-60
2022/03/04 02:32:00;;;;;;;21.90;13.30;;;;;;;2.80;51.96;99085.73;233463;1217;246596;-59
2022/03/04 02:37:08;;;;;;;22.50;14.00;;;;;;;2.82;51.97;99085.16;233520;1215;139185;-60
2022/03/04 02:42:11;;;;;;;22.20;15.00;;;;;;;2.90;52.01;99092.10;233395;1217;138528;-61
2022/03/04 02:47:15;;;;;;;23.70;15.00;;;;;;;2.91;51.87;99095.42;233585;1217;138672;-60
2022/03/04 02:52:22;;;;;;;24.20;15.90;;;;;;;2.88;51.85;99098.64;233450;1217;139518;-62
2022/03/04 02:57:25;;;;;;;25.40;15.30;;;;;;;2.82;51.87;99105.29;233348;1217;138650;-62
2022/03/04 03:02:30;;;;;;;28.60;16.90;;;;;;;2.82;51.92;99100.92;233452;1217;139041;-62
2022/03/04 03:07:33;;;;;;;24.00;16.20;;;;;;;2.84;51.94;99104.36;233465;1217;138700;-60
2022/03/04 03:12:38;;;;;;;26.60;16.20;;;;;;;2.80;51.98;99102.92;233321;1217;138286;-60
2022/03/04 03:17:41;;;;;;;29.70;18.60;;;;;;;2.75;52.11;99109.38;233269;1217;138552;-63
2022/03/04 03:22:44;;;;;;;28.00;18.50;;;;;;;2.72;52.19;99114.20;233356;1217;138580;-63
2022/03/04 03:27:47;;;;;;;28.30;18.00;;;;;;;2.73;52.40;99112.92;233374;1217;141604;-62
2022/03/04 03:32:50;;;;;;;32.90;19.20;;;;;;;2.75;52.27;99119.18;233182;1217;139076;-61
2022/03/04 03:37:53;;;;;;;30.40;19.30;;;;;;;2.74;52.52;99120.61;233340;1217;138268;-61
2022/03/04 03:42:56;;;;;;;28.90;17.80;;;;;;;2.76;52.47;99121.61;233351;1217;232928;-62
2022/03/04 03:47:59;;;;;;;32.40;19.50;;;;;;;2.74;52.51;99118.86;233535;1217;138143;-62
2022/03/04 03:53:02;;;;;;;29.70;18.80;;;;;;;2.71;52.47;99124.56;233747;1216;138764;-62
2022/03/04 03:58:05;;;;;;;28.30;16.40;;;;;;;2.70;52.64;99121.79;233564;1217;139631;-61
2022/03/04 04:03:08;;;;;;;29.90;17.90;;;;;;;2.69;52.73;99117.79;233518;1217;138391;-62
2022/03/04 04:08:11;;;;;;;29.40;17.60;;;;;;;2.71;52.76;99117.70;233551;1216;139409;-62
2022/03/04 04:13:14;;;;;;;30.50;17.30;;;;;;;2.73;52.78;99122.56;233349;1215;138929;-64
2022/03/04 04:18:17;;;;;;;31.50;17.90;;;;;;;2.73;52.77;99125.20;233494;1217;138559;-64
2022/03/04 04:23:20;;;;;;;27.70;17.10;;;;;;;2.70;52.91;99128.95;233580;1217;138414;-62
2022/03/04 04:28:25;;;;;;;28.60;18.50;;;;;;;2.68;52.94;99128.14;233534;1217;139099;-61
2022/03/04 04:33:28;;;;;;;28.30;17.60;;;;;;;2.69;53.02;99128.82;233553;1217;138549;-60
2022/03/04 04:38:31;;;;;;;24.60;16.30;;;;;;;2.71;53.17;99132.98;233424;1217;139778;-62
2022/03/04 04:43:35;;;;;;;30.90;18.20;;;;;;;2.73;53.23;99130.27;233434;1217;138674;-64
2022/03/04 04:48:38;;;;;;;29.50;17.30;;;;;;;2.74;53.06;99134.42;233142;1217;140017;-63
2022/03/04 04:53:41;;;;;;;26.00;16.40;;;;;;;2.73;53.14;99135.70;233552;1217;138830;-65
2022/03/04 04:58:44;;;;;;;30.50;17.60;;;;;;;2.73;53.17;99131.70;233572;1217;138325;-63
2022/03/04 05:03:47;;;;;;;29.80;17.70;;;;;;;2.72;53.30;99138.02;233299;1216;138983;-64
2022/03/04 05:08:50;;;;;;;26.40;16.80;;;;;;;2.73;53.32;99145.85;233323;1217;139060;-64
2022/03/04 05:13:53;;;;;;;28.80;15.90;;;;;;;2.75;53.46;99146.87;233435;1217;138918;-64
2022/03/04 05:18:56;;;;;;;26.00;15.90;;;;;;;2.72;53.45;99151.34;233388;1217;140981;-64
2022/03/04 05:24:02;;;;;;;25.20;16.30;;;;;;;2.72;53.62;99152.74;233447;1217;138862;-62
2022/03/04 05:29:09;;;;;;;31.90;18.10;;;;;;;2.72;53.80;99155.70;233570;1217;138396;-62
2022/03/04 05:34:12;;;;;;;27.00;15.90;;;;;;;2.73;54.12;99156.89;233472;1217;138353;-60
2022/03/04 05:39:15;;;;;;;29.70;17.20;;;;;;;2.76;54.15;99166.11;233466;1217;138265;-62
2022/03/04 05:44:18;;;;;;;30.20;18.10;;;;;;;2.78;54.45;99165.34;233560;1217;138891;-63
2022/03/04 05:49:22;;;;;;;30.60;18.50;;;;;;;2.75;54.35;99169.98;233508;1217;139336;-60
2022/03/04 05:54:25;;;;;;;32.90;19.50;;;;;;;2.76;54.53;99171.34;233445;1217;138383;-59
2022/03/04 05:59:28;;;;;;;31.60;19.20;;;;;;;2.79;54.84;99174.95;233244;1217;139417;-62
2022/03/04 06:04:31;;;;;;;29.00;19.20;;;;;;;2.80;55.00;99176.31;233574;1217;138830;-63
2022/03/04 06:09:34;;;;;;;37.90;20.00;;;;;;;2.80;55.09;99184.02;233386;1217;141069;-67
2022/03/04 06:14:37;;;;;;;31.50;19.50;;;;;;;2.82;55.33;99185.38;233564;1217;138865;-61
2022/03/04 06:19:41;;;;;;;38.20;22.00;;;;;;;2.86;55.54;99191.21;233363;1217;138461;-62
2022/03/04 06:24:44;;;;;;;40.00;23.30;;;;;;;2.89;55.78;99200.42;233500;1215;138763;-63
2022/03/04 06:29:47;;;;;;;36.90;22.30;;;;;;;2.92;56.11;99206.10;233305;1217;139547;-63
2022/03/04 06:34:50;;;;;;;44.60;25.10;;;;;;;2.94;56.15;99212.88;233351;1217;138427;-62
2022/03/04 06:39:53;;;;;;;38.10;24.50;;;;;;;2.94;56.38;99217.08;233416;1216;139217;-61
2022/03/04 06:44:56;;;;;;;41.50;24.30;;;;;;;2.96;56.58;99217.06;233477;1215;138793;-61
2022/03/04 06:50:03;;;;;;;41.80;24.70;;;;;;;2.97;56.88;99220.86;233489;1217;139510;-63
2022/03/04 06:55:07;;;;;;;46.70;26.60;;;;;;;2.99;56.88;99224.15;233431;1216;138502;-62
2022/03/04 07:00:11;;;;;;;46.40;26.60;;;;;;;3.01;56.95;99224.27;233463;1217;138683;-61
2022/03/04 07:05:14;;;;;;;47.00;27.00;;;;;;;3.05;57.05;99228.19;233545;1217;138480;-62
2022/03/04 07:10:18;;;;;;;49.10;28.40;;;;;;;3.12;57.29;99226.75;233496;1217;137933;-60
2022/03/04 07:15:21;;;;;;;47.90;28.30;;;;;;;3.17;57.33;99224.53;233612;1217;139098;-60
2022/03/04 07:20:24;;;;;;;46.70;28.10;;;;;;;3.20;57.32;99229.00;232666;1215;138677;-63
2022/03/04 07:25:27;;;;;;;419.80;247.70;;;;;;;3.34;58.16;99233.83;233330;1216;138559;-62
2022/03/04 07:30:30;;;;;;;53.00;30.90;;;;;;;3.96;59.04;99238.92;233504;1217;138678;-63
2022/03/04 07:35:34;;;;;;;55.00;29.80;;;;;;;4.03;57.42;99244.33;233482;1217;138783;-64
2022/03/04 07:40:38;;;;;;;49.20;29.30;;;;;;;3.93;57.10;99244.12;233583;1216;139240;-63
2022/03/04 07:45:41;;;;;;;52.10;30.50;;;;;;;3.90;56.98;99242.83;233540;1217;139407;-63
2022/03/04 07:50:44;;;;;;;600.90;401.70;;;;;;;3.88;57.23;99242.01;233458;1217;139567;-61
2022/03/04 07:55:47;;;;;;;70.00;40.40;;;;;;;3.97;57.71;99248.55;233448;1217;140925;-63
2022/03/04 08:00:50;;;;;;;68.90;33.30;;;;;;;3.99;57.38;99248.49;233504;1217;138446;-61
2022/03/04 08:06:13;;;;;;;52.10;28.80;;;;;;;3.94;57.13;99252.32;233390;1217;138671;-63
2022/03/04 08:11:16;;;;;;;416.50;301.80;;;;;;;3.88;57.32;99259.52;233579;1217;138463;-62
2022/03/04 08:16:19;;;;;;;62.20;36.90;;;;;;;4.03;58.20;99261.19;233426;1217;139408;-63
2022/03/04 08:21:23;;;;;;;54.40;33.00;;;;;;;4.21;57.85;99264.98;233451;1217;138793;-62
2022/03/04 08:26:27;;;;;;;49.80;29.80;;;;;;;4.84;59.30;99265.68;233436;1216;141217;-63
2022/03/04 08:31:37;;;;;;;56.60;30.30;;;;;;;4.83;57.43;99267.30;233448;1217;141793;-63
2022/03/04 08:36:40;;;;;;;49.90;28.80;;;;;;;4.67;57.43;99264.86;233491;1216;138442;-63
2022/03/04 08:41:43;;;;;;;58.70;34.90;;;;;;;4.60;57.52;99265.45;233415;1217;139193;-65
2022/03/04 08:46:47;;;;;;;48.80;26.90;;;;;;;4.59;57.33;99265.48;233576;1217;139043;-63
2022/03/04 08:51:50;;;;;;;44.70;25.60;;;;;;;4.50;56.92;99269.13;233488;1217;138726;-60
2022/03/04 08:56:53;;;;;;;36.90;23.50;;;;;;;4.43;57.15;99272.50;233522;1214;138617;-59
2022/03/04 09:01:56;;;;;;;38.90;22.50;;;;;;;4.40;57.02;99271.59;233339;1217;138474;-59
2022/03/04 09:07:00;;;;;;;38.10;22.60;;;;;;;4.35;56.87;99276.84;233355;1217;139592;-61
2022/03/04 09:12:03;;;;;;;305.50;153.80;;;;;;;4.36;57.13;99278.01;233283;1217;138830;-63
2022/03/04 09:17:06;;;;;;;62.50;28.90;;;;;;;4.47;57.18;99283.08;233423;1219;141373;-60
2022/03/04 09:22:10;;;;;;;36.00;19.90;;;;;;;4.52;56.85;99287.33;233264;1217;139066;-62
2022/03/04 09:27:13;;;;;;;321.80;229.20;;;;;;;4.58;56.87;99290.46;233267;1219;138595;-59
2022/03/04 09:32:16;;;;;;;50.90;31.10;;;;;;;4.73;56.86;99294.89;233144;1217;139081;-61
2022/03/04 09:37:19;;;;;;;33.50;21.00;;;;;;;4.83;56.94;99292.23;233258;1217;138911;-62
2022/03/04 09:42:23;;;;;;;34.50;19.90;;;;;;;4.88;56.53;99297.00;233301;1217;138863;-62
2022/03/04 09:47:27;;;;;;;104.40;54.80;;;;;;;4.95;56.22;99298.67;233174;1218;139184;-62
2022/03/04 09:52:31;;;;;;;29.20;17.70;;;;;;;5.10;56.40;99297.27;233369;1217;139075;-61
2022/03/04 09:57:35;;;;;;;26.10;15.60;;;;;;;5.12;55.76;99303.88;233269;1217;140127;-61
2022/03/04 10:02:38;;;;;;;26.10;16.00;;;;;;;5.12;55.79;99303.88;233289;1217;138554;-63
2022/03/04 10:07:45;;;;;;;29.80;16.50;;;;;;;5.12;55.22;99305.82;233399;1217;138571;-62
2022/03/04 10:12:51;;;;;;;27.90;16.70;;;;;;;5.12;55.51;99306.02;233248;1217;138447;-63
2022/03/04 10:18:05;;;;;;;27.50;16.50;;;;;;;5.15;55.39;99303.77;233334;1217;138351;-62
2022/03/04 10:23:17;;;;;;;615.20;424.80;;;;;;;5.21;55.14;99304.27;233272;1217;139709;-63
2022/03/04 10:28:25;;;;;;;62.40;35.30;;;;;;;5.36;55.61;99299.15;233087;1217;138913;-60
2022/03/04 10:33:29;;;;;;;38.90;23.20;;;;;;;5.54;55.29;99299.38;233228;1217;138720;-61
2022/03/04 10:38:32;;;;;;;33.80;19.40;;;;;;;5.67;54.96;99298.35;233233;1219;138693;-62
2022/03/04 10:43:37;;;;;;;29.40;17.30;;;;;;;5.67;54.35;99299.56;233218;1217;138487;-61
2022/03/04 10:48:51;;;;;;;32.30;18.90;;;;;;;5.67;54.20;99305.20;233407;1217;139153;-64
2022/03/04 10:54:18;;;;;;;29.80;18.60;;;;;;;5.71;54.25;99297.50;233358;1217;138488;-64
2022/03/04 10:59:24;;;;;;;30.00;16.60;;;;;;;5.73;53.90;99292.50;233456;1217;139177;-64
2022/03/04 11:04:27;;;;;;;28.20;15.80;;;;;;;5.74;53.74;99292.80;233306;1217;138973;-64
2022/03/04 11:09:31;;;;;;;30.80;17.70;;;;;;;5.74;53.51;99288.94;233400;1217;138604;-64
2022/03/04 11:14:34;;;;;;;26.90;16.70;;;;;;;5.79;52.97;99285.02;233305;1217;139378;-65
2022/03/04 11:19:37;;;;;;;24.70;15.50;;;;;;;5.79;52.78;99282.77;233492;1215;138472;-63
2022/03/04 11:24:40;;;;;;;26.10;15.70;;;;;;;5.67;52.32;99283.91;233233;1217;139536;-63
2022/03/04 11:29:43;;;;;;;27.00;15.80;;;;;;;5.60;52.25;99277.47;233268;1218;139166;-63
2022/03/04 11:34:46;;;;;;;25.40;15.10;;;;;;;5.57;52.59;99276.19;233517;1217;138382;-63
2022/03/04 11:40:06;;;;;;;26.30;15.10;;;;;;;5.61;52.62;99279.59;233490;1217;138769;-64
2022/03/04 11:45:10;;;;;;;23.70;14.90;;;;;;;5.59;52.29;99276.10;233292;1217;138815;-63
2022/03/04 11:50:27;;;;;;;27.30;16.50;;;;;;;5.64;52.41;99270.28;233340;1217;139159;-63
2022/03/04 11:55:30;;;;;;;25.00;15.60;;;;;;;5.70;52.69;99261.09;233394;1217;138848;-63
2022/03/04 12:00:35;;;;;;;26.60;15.40;;;;;;;5.76;52.60;99264.73;233398;1217;138482;-64
2022/03/04 12:05:45;;;;;;;25.80;15.30;;;;;;;5.83;52.58;99264.27;233368;1217;139005;-64
2022/03/04 12:10:50;;;;;;;26.40;14.20;;;;;;;5.89;52.37;99266.36;233333;1217;139204;-62
2022/03/04 12:16:03;;;;;;;28.60;14.20;;;;;;;5.89;52.53;99269.66;233343;1217;138865;-63
2022/03/04 12:21:10;;;;;;;28.90;13.60;;;;;;;5.84;52.17;99266.54;233281;1217;138466;-63
2022/03/04 12:26:25;;;;;;;26.20;15.20;;;;;;;5.81;52.26;99268.41;233332;1217;139104;-63
2022/03/04 12:31:33;;;;;;;25.20;14.10;;;;;;;5.68;51.75;99267.85;233161;1217;139920;-64
2022/03/04 12:36:37;;;;;;;21.50;12.40;;;;;;;5.56;51.74;99273.79;233388;1217;139603;-62
2022/03/04 12:41:40;;;;;;;25.30;12.90;;;;;;;5.44;51.95;99272.63;233466;1217;138663;-63
2022/03/04 12:46:44;;;;;;;27.30;13.70;;;;;;;5.33;51.88;99272.16;233414;1217;138974;-63
2022/03/04 12:51:47;;;;;;;28.90;15.90;;;;;;;5.20;52.08;99266.31;233458;1217;138706;-63
2022/03/04 12:56:58;;;;;;;26.10;13.50;;;;;;;5.20;52.39;99266.67;233329;1217;139101;-63
2022/03/04 13:02:01;;;;;;;22.40;13.20;;;;;;;5.20;52.67;99265.61;233496;1217;138877;-64
2022/03/04 13:07:05;;;;;;;27.50;13.80;;;;;;;5.23;52.58;99265.52;233381;1217;138852;-64
2022/03/04 13:12:08;;;;;;;24.20;13.80;;;;;;;5.27;53.12;99263.77;233373;1217;138664;-63
2022/03/04 13:17:12;;;;;;;24.10;13.20;;;;;;;5.31;53.15;99266.27;233437;1217;138723;-63
2022/03/04 13:22:18;;;;;;;21.30;13.30;;;;;;;5.32;52.84;99268.17;233352;1217;138943;-64
2022/03/04 13:27:21;;;;;;;23.10;14.20;;;;;;;5.29;52.95;99261.40;233419;1217;139264;-64
2022/03/04 13:32:29;;;;;;;25.40;13.00;;;;;;;5.31;53.07;99264.16;233351;1217;139388;-63
2022/03/04 13:37:40;;;;;;;22.40;13.30;;;;;;;5.33;52.95;99264.25;233146;1217;138840;-66
2022/03/04 13:42:52;;;;;;;131.30;74.70;;;;;;;5.35;52.86;99266.63;233331;1217;138505;-61
2022/03/04 13:47:58;;;;;;;29.50;17.30;;;;;;;5.49;53.15;99267.55;233223;1217;140209;-63
2022/03/04 13:53:03;;;;;;;30.50;15.50;;;;;;;5.52;52.87;99268.48;233310;1217;139258;-64
2022/03/04 13:58:20;;;;;;;28.30;15.30;;;;;;;5.51;53.01;99269.23;233376;1217;138556;-62
2022/03/04 14:03:29;;;;;;;26.30;14.90;;;;;;;5.50;53.13;99271.71;233473;1217;138807;-63
2022/03/04 14:08:33;;;;;;;25.00;15.20;;;;;;;5.49;53.18;99270.89;233291;1217;139684;-63
2022/03/04 14:13:36;;;;;;;26.80;15.80;;;;;;;5.44;53.28;99273.70;233318;1215;138566;-65
2022/03/04 14:18:39;;;;;;;27.60;16.20;;;;;;;5.41;53.30;99273.11;233314;1217;138642;-63
2022/03/04 14:23:43;;;;;;;28.90;16.80;;;;;;;5.37;53.25;99276.77;233419;1217;138470;-64
2022/03/04 14:29:09;;;;;;;33.40;17.80;;;;;;;5.32;53.53;99279.77;233343;1217;139217;-63
2022/03/04 14:34:09;;;;;;;29.60;17.30;;;;;;;5.28;54.13;99285.21;233297;1217;138543;-63
2022/03/04 14:39:12;;;;;;;32.90;18.90;;;;;;;5.24;53.95;99289.20;233304;1217;138417;-64
2022/03/04 14:44:15;;;;;;;32.50;19.50;;;;;;;5.23;54.25;99294.70;233318;1216;137985;-63
2022/03/04 14:49:18;;;;;;;35.60;19.60;;;;;;;5.21;54.08;99294.39;233197;1217;138879;-63
2022/03/04 14:54:22;;;;;;;39.00;20.30;;;;;;;5.19;54.60;99300.27;233207;1217;138411;-62
2022/03/04 14:59:25;;;;;;;38.30;21.20;;;;;;;5.19;54.55;99296.79;233444;1217;138892;-63
2022/03/04 15:04:28;;;;;;;40.40;21.90;;;;;;;5.16;54.74;99297.23;233271;1217;139068;-63
2022/03/04 15:09:32;;;;;;;92.10;48.90;;;;;;;5.20;55.17;99296.74;233258;1217;139136;-62
2022/03/04 15:14:56;;;;;;;39.70;23.00;;;;;;;5.30;55.36;99293.73;233256;1217;138618;-62
2022/03/04 15:20:01;;;;;;;38.80;21.40;;;;;;;5.29;55.17;99286.77;233208;1217;138693;-63
2022/03/04 15:25:09;;;;;;;37.10;21.50;;;;;;;5.25;55.12;99296.20;233334;1217;139218;-63
2022/03/04 15:30:13;;;;;;;38.70;20.80;;;;;;;5.21;55.26;99297.76;233311;1217;138191;-63
2022/03/04 15:35:17;;;;;;;44.00;21.50;;;;;;;5.20;55.32;99304.48;233270;1217;138329;-62
2022/03/04 15:40:20;;;;;;;40.30;21.70;;;;;;;5.18;55.51;99307.17;233262;1217;139647;-62
2022/03/04 15:45:23;;;;;;;39.00;20.40;;;;;;;5.18;55.43;99309.81;233255;1217;138419;-62
2022/03/04 15:50:26;;;;;;;35.70;20.10;;;;;;;5.16;55.45;99311.67;233141;1217;138669;-63
2022/03/04 15:55:29;;;;;;;41.20;21.10;;;;;;;5.14;55.44;99316.66;233309;1217;138606;-63
2022/03/04 16:00:32;;;;;;;38.60;21.00;;;;;;;5.14;55.27;99316.85;233284;1217;138591;-63
2022/03/04 16:05:35;;;;;;;125.80;63.80;;;;;;;5.14;55.62;99321.05;233329;1215;138250;-63
2022/03/04 16:10:40;;;;;;;47.20;23.90;;;;;;;5.25;55.94;99323.50;233526;1217;138864;-63
2022/03/04 16:15:43;;;;;;;40.50;22.40;;;;;;;5.26;55.66;99315.52;233419;1217;138962;-63
2022/03/04 16:20:46;;;;;;;38.40;21.60;;;;;;;5.22;55.48;99317.45;233332;1217;139174;-62
2022/03/04 16:25:49;;;;;;;39.70;21.50;;;;;;;5.17;55.30;99323.07;233360;1216;139177;-62
2022/03/04 16:30:53;;;;;;;39.40;21.30;;;;;;;5.13;55.64;99326.36;233382;1217;138351;-63
2022/03/04 16:35:56;;;;;;;44.20;23.70;;;;;;;5.10;55.65;99325.06;233351;1217;138451;-63
2022/03/04 16:41:01;;;;;;;41.70;22.30;;;;;;;5.08;55.32;99329.02;233398;1217;138761;-62
2022/03/04 16:46:04;;;;;;;41.50;22.90;;;;;;;5.06;55.69;99332.59;233393;1217;138468;-61
2022/03/04 16:51:27;;;;;;;148.90;85.00;;;;;;;5.05;55.68;99338.42;233286;1217;138834;-61
2022/03/04 16:56:30;;;;;;;63.20;32.90;;;;;;;5.11;56.10;99342.98;233377;1215;139970;-63
2022/03/04 17:01:33;;;;;;;47.00;25.20;;;;;;;5.15;55.81;99343.17;233406;1217;140278;-63
2022/03/04 17:06:37;;;;;;;49.10;25.90;;;;;;;5.14;55.56;99347.08;233329;1217;141158;-63
2022/03/04 17:11:41;;;;;;;34.20;19.60;;;;;;;5.12;55.96;99355.77;233393;1217;139022;-62
2022/03/04 17:16:45;;;;;;;35.40;18.30;;;;;;;5.04;56.04;99354.63;233639;1216;138851;-62
2022/03/04 17:21:48;;;;;;;32.20;17.70;;;;;;;4.98;56.36;99352.91;233407;1217;138802;-63
2022/03/04 17:26:51;;;;;;;33.90;18.10;;;;;;;4.92;56.40;99356.96;233452;1217;139293;-62
2022/03/04 17:31:55;;;;;;;32.60;18.30;;;;;;;4.89;56.57;99356.20;233327;1217;138582;-62
2022/03/04 17:36:59;;;;;;;31.80;17.80;;;;;;;4.85;57.08;99357.75;233459;1216;139091;-63
2022/03/04 17:42:22;;;;;;;30.90;17.20;;;;;;;4.79;57.07;99355.51;233446;1216;138999;-63
2022/03/04 17:47:26;;;;;;;28.40;16.60;;;;;;;4.73;57.36;99356.20;233530;1216;138900;-62
2022/03/04 17:52:29;;;;;;;29.20;17.40;;;;;;;4.66;57.40;99355.55;233370;1215;139135;-62
2022/03/04 17:57:32;;;;;;;29.10;17.50;;;;;;;4.62;57.65;99359.02;233339;1217;139029;-63
2022/03/04 18:02:35;;;;;;;28.70;17.20;;;;;;;4.62;57.93;99362.02;233577;1217;138710;-63
2022/03/04 18:07:42;;;;;;;25.70;15.80;;;;;;;4.62;58.22;99364.31;233301;1217;138734;-63
2022/03/04 18:12:45;;;;;;;28.40;16.80;;;;;;;4.57;57.98;99367.46;233558;1217;138801;-63
2022/03/04 18:17:48;;;;;;;27.80;16.70;;;;;;;4.50;58.24;99370.66;233521;1217;138889;-63
2022/03/04 18:22:51;;;;;;;24.50;14.80;;;;;;;4.45;58.17;99371.35;233484;1217;138153;-63
2022/03/04 18:27:54;;;;;;;24.70;15.40;;;;;;;4.39;58.49;99375.39;233465;1217;138439;-63
2022/03/04 18:32:58;;;;;;;26.30;15.00;;;;;;;4.35;58.61;99374.48;233297;1217;139444;-63
2022/03/04 18:43:22;;;;;;;34.10;19.00;;;;;;;4.63;60.60;99375.13;233388;1216;139363;-63
2022/03/04 18:48:26;;;;;;;29.00;17.80;;;;;;;5.34;60.10;99375.42;233482;1216;139465;-63
2022/03/04 18:53:29;;;;;;;30.90;18.20;;;;;;;5.23;58.75;99374.39;233520;1217;139057;-63
2022/03/04 18:58:32;;;;;;;35.60;20.90;;;;;;;4.99;58.62;99374.15;233379;1217;139149;-63
2022/03/04 19:03:35;;;;;;;37.20;21.70;;;;;;;4.79;58.99;99374.48;233529;1217;138623;-62
2022/03/04 19:08:38;;;;;;;39.70;22.30;;;;;;;4.63;59.16;99374.66;233463;1215;138863;-63
2022/03/04 19:13:41;;;;;;;38.70;21.80;;;;;;;4.49;59.34;99368.06;233335;1217;138886;-63
2022/03/04 19:18:45;;;;;;;36.90;22.30;;;;;;;4.39;59.51;99368.73;233211;1217;139324;-61
2022/03/04 19:23:49;;;;;;;34.50;21.20;;;;;;;4.35;60.02;99373.95;233305;1217;138610;-63
2022/03/04 19:28:55;;;;;;;39.40;21.40;;;;;;;4.31;60.02;99379.89;233605;1217;139153;-63
2022/03/04 19:34:00;;;;;;;35.60;22.00;;;;;;;4.22;60.17;99380.87;233534;1217;138591;-62
2022/03/04 19:39:04;;;;;;;39.60;23.80;;;;;;;4.15;60.13;99381.96;233379;1217;138426;-64
2022/03/04 19:44:07;;;;;;;39.70;23.90;;;;;;;4.09;60.53;99383.89;233379;1217;142018;-63
2022/03/04 19:49:10;;;;;;;46.60;26.40;;;;;;;4.07;60.42;99385.89;233385;1216;138851;-63
2022/03/04 19:54:14;;;;;;;45.40;26.00;;;;;;;4.07;60.81;99387.30;233407;1217;138504;-61
2022/03/04 19:59:22;;;;;;;47.90;27.10;;;;;;;4.11;60.95;99385.77;233558;1217;139221;-60
2022/03/04 20:04:25;;;;;;;44.10;25.90;;;;;;;4.15;60.89;99386.34;233402;1217;138530;-62
2022/03/04 20:09:28;;;;;;;38.80;22.70;;;;;;;4.18;61.21;99381.67;233290;1217;138283;-63
2022/03/04 20:14:31;;;;;;;60.70;34.10;;;;;;;4.30;61.61;99381.13;233230;1215;138472;-63
2022/03/04 20:19:35;;;;;;;28.90;18.40;;;;;;;4.47;61.39;99377.77;233358;1217;138227;-63
2022/03/04 20:24:40;;;;;;;26.50;15.90;;;;;;;4.42;60.95;99376.39;233353;1217;138729;-63
2022/03/04 20:29:44;;;;;;;28.30;16.80;;;;;;;4.33;60.95;99379.65;233206;1217;138603;-62
2022/03/04 20:34:47;;;;;;;23.10;15.00;;;;;;;4.24;60.88;99378.85;233464;1217;138879;-61
2022/03/04 20:39:50;;;;;;;25.90;15.10;;;;;;;4.16;60.99;99383.16;233359;1216;138523;-63
2022/03/04 20:44:54;;;;;;;23.90;15.90;;;;;;;4.09;61.22;99389.31;233280;1217;139992;-63
2022/03/04 20:49:58;;;;;;;23.30;15.70;;;;;;;4.04;61.16;99392.82;233342;1217;139048;-63
2022/03/04 20:55:01;;;;;;;22.90;15.30;;;;;;;3.98;61.13;99395.09;233167;1215;138930;-64
2022/03/04 21:00:26;;;;;;;73.30;44.40;;;;;;;4.03;61.89;99400.04;233376;1217;139061;-64
2022/03/04 21:05:29;;;;;;;26.00;17.30;;;;;;;4.32;62.08;99400.06;233486;1217;139663;-63
2022/03/04 21:10:32;;;;;;;30.90;18.50;;;;;;;4.30;61.45;99401.70;233224;1217;139779;-63
2022/03/04 21:15:35;;;;;;;30.30;19.40;;;;;;;4.28;61.43;99408.96;233317;1217;138492;-63
2022/03/04 21:20:39;;;;;;;28.40;18.00;;;;;;;4.24;61.28;99415.58;233504;1216;138660;-63
2022/03/04 21:25:42;;;;;;;29.30;18.10;;;;;;;4.18;61.19;99410.84;233259;1216;139087;-63
2022/03/04 21:30:45;;;;;;;29.00;18.10;;;;;;;4.11;61.33;99409.64;233251;1217;138594;-63
2022/03/04 21:35:48;;;;;;;27.70;17.50;;;;;;;4.07;61.49;99417.48;233202;1217;138868;-64
2022/03/04 21:40:51;;;;;;;27.40;16.60;;;;;;;4.02;61.44;99415.67;233441;1217;138964;-62
2022/03/04 21:45:55;;;;;;;24.90;15.70;;;;;;;3.99;61.42;99412.27;233309;1217;138730;-63
2022/03/04 21:50:58;;;;;;;361.40;259.20;;;;;;;3.95;61.35;99408.52;233363;1217;139379;-63
2022/03/04 21:56:02;;;;;;;38.50;24.50;;;;;;;4.09;61.87;99403.36;233224;1217;138898;-61
2022/03/04 22:01:05;;;;;;;28.30;16.90;;;;;;;4.11;61.47;99401.23;233309;1217;139949;-63
2022/03/04 22:06:08;;;;;;;27.20;16.20;;;;;;;4.01;61.34;99401.66;233329;1217;138717;-63
2022/03/04 22:11:11;;;;;;;25.90;15.90;;;;;;;3.93;61.20;99403.67;233400;1217;138965;-63
2022/03/04 22:16:14;;;;;;;26.00;15.90;;;;;;;3.85;61.70;99404.60;233349;1216;139207;-61
2022/03/04 22:21:18;;;;;;;130.10;74.70;;;;;;;3.84;61.71;99406.39;233239;1217;139728;-59
2022/03/04 22:26:21;;;;;;;26.40;16.60;;;;;;;5.69;66.86;99395.56;233419;1217;139626;-62
2022/03/04 22:31:24;;;;;;;26.00;16.30;;;;;;;6.04;61.39;99390.45;233491;1217;139092;-63
2022/03/04 22:36:27;;;;;;;25.40;16.20;;;;;;;5.63;59.86;99387.73;233171;1218;139021;-62
2022/03/04 22:41:30;;;;;;;26.90;17.20;;;;;;;5.21;59.55;99385.16;233499;1217;138878;-62
2022/03/04 22:46:35;;;;;;;25.30;16.00;;;;;;;4.86;59.53;99388.84;233430;1217;138573;-62
2022/03/04 22:51:39;;;;;;;28.00;17.10;;;;;;;4.56;60.00;99393.66;233365;1217;138763;-62
2022/03/04 22:56:42;;;;;;;26.10;17.30;;;;;;;4.37;60.26;99399.20;233350;1217;139474;-61
2022/03/04 23:01:45;;;;;;;25.80;16.40;;;;;;;4.21;60.61;99399.67;233538;1217;139831;-62
2022/03/04 23:12:24;;;;;;;26.20;16.20;;;;;;;3.99;60.83;99399.27;233117;1217;139133;-60
2022/03/04 23:17:27;;;;;;;34.60;19.80;;;;;;;3.92;61.03;99396.52;233477;1217;141539;-60